KBYH/BYH METAR and TAF weather

Enter ICAO airport designator
Station Type Date Time Source
KBYH METAR 2022/09/06 20:59 UTC NOAA

KBYH 062059Z 04005KT 10SM BKN023 BKN033 28/23 A3002 RMK LAST


Station Type Date Time Source
KBYH Decoded METAR 2022/09/06 20:59 UTC NOAA

Eaker Air Force Base, AR, United States (KBYH) 35-58N 089-57W
Sep 06, 2022 - 04:59 PM EDT / 2022.09.06 2059 UTC
Wind: from the NE (040 degrees) at 6 MPH (5 KT):0
Visibility: 10 mile(s):0
Sky conditions: mostly cloudy
Temperature: 82 F (28 C)
Dew Point: 73 F (23 C)
Relative Humidity: 74%
Pressure (altimeter): 30.02 in. Hg (1016 hPa)
ob: KBYH 062059Z 04005KT 10SM BKN023 BKN033 28/23 A3002 RMK LAST
cycle: 21

Station Type Date Time Source
KBYH TAF UTC NOAA

Error!

Example: see airport list